sensor_id;sensor_type;location;lat;lon;timestamp;pressure;altitude;pressure_sealevel;temperature;humidity
29121;BME280;16191;49.548;8.658;2023-04-25T00:02:11;99797.59;;;8.69;100.00
29121;BME280;16191;49.548;8.658;2023-04-25T00:04:38;99801.09;;;8.68;100.00
29121;BME280;16191;49.548;8.658;2023-04-25T00:07:05;99802.28;;;8.61;100.00
29121;BME280;16191;49.548;8.658;2023-04-25T00:09:32;99802.28;;;8.61;100.00
29121;BME280;16191;49.548;8.658;2023-04-25T00:11:59;99794.28;;;8.65;100.00
29121;BME280;16191;49.548;8.658;2023-04-25T00:14:31;99802.28;;;8.61;100.00
29121;BME280;16191;49.548;8.658;2023-04-25T00:17:09;99789.66;;;8.72;100.00
29121;BME280;16191;49.548;8.658;2023-04-25T00:19:37;99789.38;;;8.79;100.00
29121;BME280;16191;49.548;8.658;2023-04-25T00:22:13;99791.38;;;8.73;100.00
29121;BME280;16191;49.548;8.658;2023-04-25T00:25:01;99794.75;;;8.75;100.00
29121;BME280;16191;49.548;8.658;2023-04-25T00:27:29;99786.88;;;8.76;100.00
29121;BME280;16191;49.548;8.658;2023-04-25T00:29:56;99794.56;;;8.79;100.00
29121;BME280;16191;49.548;8.658;2023-04-25T00:32:22;99789.38;;;8.79;100.00
29121;BME280;16191;49.548;8.658;2023-04-25T00:34:49;99786.94;;;8.75;100.00
29121;BME280;16191;49.548;8.658;2023-04-25T00:37:16;99791.97;;;8.79;100.00
29121;BME280;16191;49.548;8.658;2023-04-25T00:39:42;99783.38;;;8.77;100.00
29121;BME280;16191;49.548;8.658;2023-04-25T00:42:09;99786.75;;;8.79;100.00
29121;BME280;16191;49.548;8.658;2023-04-25T00:44:36;99786.88;;;8.76;100.00
29121;BME280;16191;49.548;8.658;2023-04-25T00:47:04;99780.72;;;8.79;100.00
29121;BME280;16191;49.548;8.658;2023-04-25T00:49:31;99778.34;;;8.73;100.00
29121;BME280;16191;49.548;8.658;2023-04-25T00:51:57;99781.13;;;8.68;100.00
29121;BME280;16191;49.548;8.658;2023-04-25T00:54:24;99781.97;;;8.69;100.00
29121;BME280;16191;49.548;8.658;2023-04-25T00:56:52;99777.50;;;8.72;100.00
29121;BME280;16191;49.548;8.658;2023-04-25T00:59:19;99770.56;;;8.73;100.00
29121;BME280;16191;49.548;8.658;2023-04-25T01:01:46;99770.44;;;8.76;100.00
29121;BME280;16191;49.548;8.658;2023-04-25T01:04:13;99774.72;;;8.77;100.00
29121;BME280;16191;49.548;8.658;2023-04-25T01:06:40;99774.97;;;8.71;100.00
29121;BME280;16191;49.548;8.658;2023-04-25T01:09:07;99762.63;;;8.76;100.00
29121;BME280;16191;49.548;8.658;2023-04-25T01:11:33;99767.03;;;8.74;100.00
29121;BME280;16191;49.548;8.658;2023-04-25T01:14:01;99767.22;;;8.69;100.00
29121;BME280;16191;49.548;8.658;2023-04-25T01:16:28;99768.00;;;8.71;100.00
29121;BME280;16191;49.548;8.658;2023-04-25T01:18:55;99764.38;;;8.75;100.00
29121;BME280;16191;49.548;8.658;2023-04-25T01:21:22;99765.22;;;8.76;100.00
29121;BME280;16191;49.548;8.658;2023-04-25T01:23:48;99758.34;;;8.75;100.00
29121;BME280;16191;49.548;8.658;2023-04-25T01:26:15;99758.44;;;8.72;100.00
29121;BME280;16191;49.548;8.658;2023-04-25T01:28:42;99760.16;;;8.73;100.00
29121;BME280;16191;49.548;8.658;2023-04-25T01:31:11;99755.91;;;8.70;100.00
29121;BME280;16191;49.548;8.658;2023-04-25T01:33:39;99761.13;;;8.70;100.00
29121;BME280;16191;49.548;8.658;2023-04-25T01:36:05;99760.09;;;8.74;100.00
29121;BME280;16191;49.548;8.658;2023-04-25T01:38:34;99754.94;;;8.73;100.00
29121;BME280;16191;49.548;8.658;2023-04-25T01:41:01;99761.38;;;8.64;100.00
29121;BME280;16191;49.548;8.658;2023-04-25T01:43:48;99760.28;;;8.48;100.00
29121;BME280;16191;49.548;8.658;2023-04-25T01:46:35;99761.19;;;8.47;100.00
29121;BME280;16191;49.548;8.658;2023-04-25T01:49:23;99765.44;;;8.49;100.00
29121;BME280;16191;49.548;8.658;2023-04-25T01:52:10;99764.09;;;8.61;100.00
29121;BME280;16191;49.548;8.658;2023-04-25T01:54:59;99759.69;;;8.63;100.00
29121;BME280;16191;49.548;8.658;2023-04-25T01:57:49;99760.66;;;8.61;100.00
29121;BME280;16191;49.548;8.658;2023-04-25T02:00:17;99766.59;;;8.64;100.00
29121;BME280;16191;49.548;8.658;2023-04-25T02:02:44;99760.53;;;8.64;100.00
29121;BME280;16191;49.548;8.658;2023-04-25T02:05:34;99766.72;;;8.61;100.00
29121;BME280;16191;49.548;8.658;2023-04-25T02:08:08;99763.09;;;8.65;100.00
29121;BME280;16191;49.548;8.658;2023-04-25T02:10:35;99770.34;;;8.57;100.00
29121;BME280;16191;49.548;8.658;2023-04-25T02:13:28;99765.25;;;8.54;100.00
29121;BME280;16191;49.548;8.658;2023-04-25T02:16:17;99770.56;;;8.51;100.00
29121;BME280;16191;49.548;8.658;2023-04-25T02:18:44;99770.56;;;8.51;100.00
29121;BME280;16191;49.548;8.658;2023-04-25T02:21:11;99766.03;;;8.56;100.00
29121;BME280;16191;49.548;8.658;2023-04-25T02:23:38;99766.94;;;8.55;100.00
29121;BME280;16191;49.548;8.658;2023-04-25T02:26:04;99773.56;;;8.42;100.00
29121;BME280;16191;49.548;8.658;2023-04-25T02:28:31;99771.13;;;8.37;100.00
29121;BME280;16191;49.548;8.658;2023-04-25T02:30:58;99773.84;;;8.34;100.00
29121;BME280;16191;49.548;8.658;2023-04-25T02:33:25;99762.47;;;8.37;100.00
29121;BME280;16191;49.548;8.658;2023-04-25T02:35:51;99772.59;;;8.44;100.00
29121;BME280;16191;49.548;8.658;2023-04-25T02:38:20;99770.22;;;8.38;100.00
29121;BME280;16191;49.548;8.658;2023-04-25T02:40:47;99765.81;;;8.40;100.00
29121;BME280;16191;49.548;8.658;2023-04-25T02:43:14;99769.56;;;8.33;100.00
29121;BME280;16191;49.548;8.658;2023-04-25T02:45:40;99769.38;;;8.38;100.00
29121;BME280;16191;49.548;8.658;2023-04-25T02:48:07;99759.41;;;8.25;100.00
29121;BME280;16191;49.548;8.658;2023-04-25T02:50:34;99762.66;;;8.32;100.00
29121;BME280;16191;49.548;8.658;2023-04-25T02:53:00;99761.47;;;8.41;100.00
29121;BME280;16191;49.548;8.658;2023-04-25T02:55:34;99768.13;;;8.24;100.00
29121;BME280;16191;49.548;8.658;2023-04-25T02:58:02;99767.75;;;8.12;100.00
29121;BME280;16191;49.548;8.658;2023-04-25T03:00:38;99771.19;;;8.12;100.00
29121;BME280;16191;49.548;8.658;2023-04-25T03:03:05;99776.13;;;7.97;100.00
29121;BME280;16191;49.548;8.658;2023-04-25T03:05:32;99775.13;;;8.01;100.00
29121;BME280;16191;49.548;8.658;2023-04-25T03:07:58;99778.16;;;8.12;100.00
29121;BME280;16191;49.548;8.658;2023-04-25T03:10:26;99772.16;;;8.10;100.00
29121;BME280;16191;49.548;8.658;2023-04-25T03:12:53;99770.06;;;8.19;100.00
29121;BME280;16191;49.548;8.658;2023-04-25T03:15:20;99765.56;;;8.23;100.00
29121;BME280;16191;49.548;8.658;2023-04-25T03:17:46;99762.06;;;8.24;100.00
29121;BME280;16191;49.548;8.658;2023-04-25T03:20:13;99763.50;;;8.33;100.00
29121;BME280;16191;49.548;8.658;2023-04-25T03:22:40;99760.94;;;8.31;100.00
29121;BME280;16191;49.548;8.658;2023-04-25T03:25:07;99761.84;;;8.30;100.00
29121;BME280;16191;49.548;8.658;2023-04-25T03:27:34;99766.03;;;8.34;100.00
29121;BME280;16191;49.548;8.658;2023-04-25T03:30:01;99755.72;;;8.31;100.00
29121;BME280;16191;49.548;8.658;2023-04-25T03:32:29;99761.78;;;8.32;100.00
29121;BME280;16191;49.548;8.658;2023-04-25T03:34:55;99763.38;;;8.36;100.00
29121;BME280;16191;49.548;8.658;2023-04-25T03:37:24;99760.91;;;8.33;100.00
29121;BME280;16191;49.548;8.658;2023-04-25T03:39:51;99762.47;;;8.37;100.00
29121;BME280;16191;49.548;8.658;2023-04-25T03:42:18;99770.78;;;8.23;100.00
29121;BME280;16191;49.548;8.658;2023-04-25T03:44:45;99774.06;;;8.05;100.00
29121;BME280;16191;49.548;8.658;2023-04-25T03:47:13;99771.31;;;8.09;100.00
29121;BME280;16191;49.548;8.658;2023-04-25T03:49:39;99774.03;;;8.06;100.00
29121;BME280;16191;49.548;8.658;2023-04-25T03:52:06;99764.25;;;8.13;100.00
29121;BME280;16191;49.548;8.658;2023-04-25T03:54:37;99763.16;;;8.18;100.00
29121;BME280;16191;49.548;8.658;2023-04-25T03:57:07;99763.69;;;8.26;100.00
29121;BME280;16191;49.548;8.658;2023-04-25T03:59:37;99763.50;;;8.33;100.00
29121;BME280;16191;49.548;8.658;2023-04-25T04:02:04;99766.94;;;8.33;100.00
29121;BME280;16191;49.548;8.658;2023-04-25T04:04:33;99771.25;;;8.11;100.00
29121;BME280;16191;49.548;8.658;2023-04-25T04:07:00;99773.00;;;8.10;100.00
29121;BME280;16191;49.548;8.658;2023-04-25T04:09:30;99773.78;;;8.12;100.00
29121;BME280;16191;49.548;8.658;2023-04-25T04:11:59;99776.56;;;8.08;100.00
29121;BME280;16191;49.548;8.658;2023-04-25T04:14:29;99784.34;;;8.08;100.00
29121;BME280;16191;49.548;8.658;2023-04-25T04:16:56;99794.88;;;8.05;100.00
29121;BME280;16191;49.548;8.658;2023-04-25T04:19:23;99779.09;;;8.09;100.00
29121;BME280;16191;49.548;8.658;2023-04-25T04:21:58;99782.00;;;8.23;100.00
29121;BME280;16191;49.548;8.658;2023-04-25T04:24:25;99783.13;;;8.18;100.00
29121;BME280;16191;49.548;8.658;2023-04-25T04:26:57;99786.50;;;8.20;100.00
29121;BME280;16191;49.548;8.658;2023-04-25T04:32:23;99795.00;;;8.23;100.00
29121;BME280;16191;49.548;8.658;2023-04-25T04:34:50;99794.25;;;8.21;100.00
29121;BME280;16191;49.548;8.658;2023-04-25T04:37:20;99792.50;;;8.22;100.00
29121;BME280;16191;49.548;8.658;2023-04-25T04:39:48;99795.78;;;8.25;100.00
29121;BME280;16191;49.548;8.658;2023-04-25T04:42:37;99791.66;;;8.21;100.00
29121;BME280;16191;49.548;8.658;2023-04-25T04:45:13;99804.50;;;8.24;100.00
29121;BME280;16191;49.548;8.658;2023-04-25T04:48:06;99797.38;;;8.30;100.00
29121;BME280;16191;49.548;8.658;2023-04-25T04:50:53;99801.47;;;8.37;100.00
29121;BME280;16191;49.548;8.658;2023-04-25T04:53:36;99808.78;;;8.25;100.00
29121;BME280;16191;49.548;8.658;2023-04-25T04:56:18;99807.88;;;8.26;100.00
29121;BME280;16191;49.548;8.658;2023-04-25T04:59:04;99812.97;;;8.30;100.00
29121;BME280;16191;49.548;8.658;2023-04-25T05:01:40;99813.03;;;8.28;100.00
29121;BME280;16191;49.548;8.658;2023-04-25T05:04:33;99816.22;;;8.36;100.00
29121;BME280;16191;49.548;8.658;2023-04-25T05:07:05;99825.66;;;8.39;100.00
29121;BME280;16191;49.548;8.658;2023-04-25T05:09:47;99830.06;;;8.37;100.00
29121;BME280;16191;49.548;8.658;2023-04-25T05:12:34;99825.91;;;8.31;100.00
29121;BME280;16191;49.548;8.658;2023-04-25T05:15:25;99830.38;;;8.27;100.00
29121;BME280;16191;49.548;8.658;2023-04-25T05:18:30;99837.53;;;8.22;100.00
29121;BME280;16191;49.548;8.658;2023-04-25T05:21:20;99838.19;;;8.27;100.00
29121;BME280;16191;49.548;8.658;2023-04-25T05:24:01;99828.38;;;8.36;100.00
29121;BME280;16191;49.548;8.658;2023-04-25T05:26:46;99826.69;;;8.35;100.00
29121;BME280;16191;49.548;8.658;2023-04-25T05:29:42;99829.84;;;8.19;100.00
29121;BME280;16191;49.548;8.658;2023-04-25T05:32:22;99830.31;;;8.29;100.00
29121;BME280;16191;49.548;8.658;2023-04-25T05:34:49;99827.78;;;8.27;100.00
29121;BME280;16191;49.548;8.658;2023-04-25T05:37:24;99838.28;;;8.24;100.00
29121;BME280;16191;49.548;8.658;2023-04-25T05:39:54;99835.69;;;8.24;100.00
29121;BME280;16191;49.548;8.658;2023-04-25T05:42:39;99834.78;;;8.25;100.00
29121;BME280;16191;49.548;8.658;2023-04-25T05:45:22;99837.19;;;8.08;100.00
29121;BME280;16191;49.548;8.658;2023-04-25T05:48:14;99843.78;;;8.17;100.00
29121;BME280;16191;49.548;8.658;2023-04-25T05:50:52;99838.13;;;8.06;100.00
29121;BME280;16191;49.548;8.658;2023-04-25T05:53:37;99835.47;;;8.07;100.00
29121;BME280;16191;49.548;8.658;2023-04-25T05:56:05;99839.38;;;8.19;100.00
29121;BME280;16191;49.548;8.658;2023-04-25T05:58:31;99842.34;;;8.33;100.00
29121;BME280;16191;49.548;8.658;2023-04-25T06:00:59;99837.34;;;8.50;100.00
29121;BME280;16191;49.548;8.658;2023-04-25T06:03:26;99841.44;;;8.56;100.00
29121;BME280;16191;49.548;8.658;2023-04-25T06:05:53;99845.69;;;8.58;100.00
29121;BME280;16191;49.548;8.658;2023-04-25T06:08:20;99850.66;;;8.65;100.00
29121;BME280;16191;49.548;8.658;2023-04-25T06:10:46;99842.59;;;8.71;100.00
29121;BME280;16191;49.548;8.658;2023-04-25T06:13:13;99847.91;;;8.68;100.00
29121;BME280;16191;49.548;8.658;2023-04-25T06:15:39;99848.06;;;8.65;100.00
29121;BME280;16191;49.548;8.658;2023-04-25T06:18:06;99850.72;;;8.63;100.00
29121;BME280;16191;49.548;8.658;2023-04-25T06:20:33;99851.97;;;8.53;100.00
29121;BME280;16191;49.548;8.658;2023-04-25T06:23:00;99844.69;;;8.63;100.00
29121;BME280;16191;49.548;8.658;2023-04-25T06:25:37;99839.69;;;8.56;100.00
29121;BME280;16191;49.548;8.658;2023-04-25T06:28:04;99843.03;;;8.60;100.00
29121;BME280;16191;49.548;8.658;2023-04-25T06:30:30;99850.34;;;8.50;100.00
29121;BME280;16191;49.548;8.658;2023-04-25T06:33:03;99843.25;;;8.32;100.00
29121;BME280;16191;49.548;8.658;2023-04-25T06:35:30;99840.84;;;8.49;100.00
29121;BME280;16191;49.548;8.658;2023-04-25T06:37:57;99840.03;;;8.24;100.00
29121;BME280;16191;49.548;8.658;2023-04-25T06:40:25;99844.03;;;8.34;100.00
29121;BME280;16191;49.548;8.658;2023-04-25T06:42:51;99845.69;;;8.37;100.00
29121;BME280;16191;49.548;8.658;2023-04-25T06:45:42;99840.66;;;8.32;100.00
29121;BME280;16191;49.548;8.658;2023-04-25T06:48:09;99844.28;;;8.26;100.00
29121;BME280;16191;49.548;8.658;2023-04-25T06:50:37;99844.41;;;8.47;100.00
29121;BME280;16191;49.548;8.658;2023-04-25T06:53:03;99843.88;;;8.61;100.00
29121;BME280;16191;49.548;8.658;2023-04-25T06:55:30;99844.00;;;8.57;100.00
29121;BME280;16191;49.548;8.658;2023-04-25T06:58:16;99851.56;;;8.42;100.00
29121;BME280;16191;49.548;8.658;2023-04-25T07:01:06;99853.84;;;8.49;100.00
29121;BME280;16191;49.548;8.658;2023-04-25T07:03:33;99850.84;;;8.60;100.00
29121;BME280;16191;49.548;8.658;2023-04-25T07:06:06;99855.59;;;8.71;100.00
29121;BME280;16191;49.548;8.658;2023-04-25T07:08:32;99852.78;;;8.77;100.00
29121;BME280;16191;49.548;8.658;2023-04-25T07:10:59;99847.84;;;8.47;100.00
29121;BME280;16191;49.548;8.658;2023-04-25T07:13:27;99854.47;;;8.78;100.00
29121;BME280;16191;49.548;8.658;2023-04-25T07:15:53;99855.72;;;8.89;100.00
29121;BME280;16191;49.548;8.658;2023-04-25T07:18:22;99854.41;;;8.79;100.00
29121;BME280;16191;49.548;8.658;2023-04-25T07:20:50;99856.94;;;8.81;100.00
29121;BME280;16191;49.548;8.658;2023-04-25T07:23:17;99865.44;;;8.86;100.00
29121;BME280;16191;49.548;8.658;2023-04-25T07:25:44;99860.97;;;8.66;100.00
29121;BME280;16191;49.548;8.658;2023-04-25T07:28:13;99861.78;;;8.68;100.00
29121;BME280;16191;49.548;8.658;2023-04-25T07:30:40;99856.84;;;8.62;100.00
29121;BME280;16191;49.548;8.658;2023-04-25T07:33:06;99860.63;;;8.53;100.00
29121;BME280;16191;49.548;8.658;2023-04-25T07:35:33;99867.56;;;8.53;100.00
29121;BME280;16191;49.548;8.658;2023-04-25T07:38:00;99868.47;;;8.52;100.00
29121;BME280;16191;49.548;8.658;2023-04-25T07:40:26;99872.56;;;8.59;100.00
29121;BME280;16191;49.548;8.658;2023-04-25T07:42:58;99865.34;;;8.44;100.00
29121;BME280;16191;49.548;8.658;2023-04-25T07:45:37;99877.84;;;8.34;100.00
29121;BME280;16191;49.548;8.658;2023-04-25T07:48:04;99877.59;;;8.64;100.00
29121;BME280;16191;49.548;8.658;2023-04-25T07:50:34;99882.63;;;8.88;100.00
29121;BME280;16191;49.548;8.658;2023-04-25T07:53:01;99879.63;;;8.99;100.00
29121;BME280;16191;49.548;8.658;2023-04-25T07:55:33;99886.28;;;9.06;100.00
29121;BME280;16191;49.548;8.658;2023-04-25T07:58:08;99893.31;;;8.82;100.00
29121;BME280;16191;49.548;8.658;2023-04-25T08:00:37;99889.44;;;8.92;100.00
29121;BME280;16191;49.548;8.658;2023-04-25T08:03:23;99896.19;;;9.18;100.00
29121;BME280;16191;49.548;8.658;2023-04-25T08:05:50;99900.00;;;9.10;100.00
29121;BME280;16191;49.548;8.658;2023-04-25T08:08:18;99893.81;;;9.34;100.00
29121;BME280;16191;49.548;8.658;2023-04-25T08:10:45;99897.00;;;9.41;100.00
29121;BME280;16191;49.548;8.658;2023-04-25T08:13:12;99898.97;;;9.56;100.00
29121;BME280;16191;49.548;8.658;2023-04-25T08:15:39;99910.81;;;9.43;100.00
29121;BME280;16191;49.548;8.658;2023-04-25T08:18:06;99903.13;;;9.80;100.00
29121;BME280;16191;49.548;8.658;2023-04-25T08:20:33;99913.25;;;9.68;100.00
29121;BME280;16191;49.548;8.658;2023-04-25T08:23:02;99926.47;;;9.63;100.00
29121;BME280;16191;49.548;8.658;2023-04-25T08:25:51;99925.53;;;9.64;100.00
29121;BME280;16191;49.548;8.658;2023-04-25T08:28:21;99933.75;;;9.75;100.00
29121;BME280;16191;49.548;8.658;2023-04-25T08:30:48;99931.22;;;9.94;100.00
29121;BME280;16191;49.548;8.658;2023-04-25T08:33:16;99929.97;;;10.23;100.00
29121;BME280;16191;49.548;8.658;2023-04-25T08:35:58;99940.31;;;10.24;100.00
29121;BME280;16191;49.548;8.658;2023-04-25T08:38:26;99938.31;;;9.90;100.00
29121;BME280;16191;49.548;8.658;2023-04-25T08:40:54;99940.19;;;10.07;100.00
29121;BME280;16191;49.548;8.658;2023-04-25T08:43:23;99940.38;;;10.03;100.00
29121;BME280;16191;49.548;8.658;2023-04-25T08:45:52;99939.94;;;10.13;100.00
29121;BME280;16191;49.548;8.658;2023-04-25T08:48:33;99951.72;;;10.02;100.00
29121;BME280;16191;49.548;8.658;2023-04-25T08:51:06;99953.03;;;9.91;100.00
29121;BME280;16191;49.548;8.658;2023-04-25T08:53:38;99964.44;;;10.09;100.00
29121;BME280;16191;49.548;8.658;2023-04-25T08:56:10;99960.72;;;10.35;100.00
29121;BME280;16191;49.548;8.658;2023-04-25T08:58:39;99969.72;;;10.28;100.00
29121;BME280;16191;49.548;8.658;2023-04-25T09:01:06;99974.81;;;10.11;100.00
29121;BME280;16191;49.548;8.658;2023-04-25T09:03:41;99971.28;;;10.32;100.00
29121;BME280;16191;49.548;8.658;2023-04-25T09:06:10;99976.00;;;10.43;100.00
29121;BME280;16191;49.548;8.658;2023-04-25T09:08:37;99987.44;;;10.79;100.00
29121;BME280;16191;49.548;8.658;2023-04-25T09:11:04;99984.38;;;10.10;100.00
29121;BME280;16191;49.548;8.658;2023-04-25T09:13:31;99991.91;;;10.38;100.00
29121;BME280;16191;49.548;8.658;2023-04-25T09:16:20;99989.13;;;10.41;100.00
29121;BME280;16191;49.548;8.658;2023-04-25T09:19:07;99995.03;;;10.26;100.00
29121;BME280;16191;49.548;8.658;2023-04-25T09:21:34;99997.13;;;10.38;100.00
29121;BME280;16191;49.548;8.658;2023-04-25T09:24:01;100003.78;;;10.44;100.00
29121;BME280;16191;49.548;8.658;2023-04-25T09:26:28;99995.47;;;10.36;96.91
29121;BME280;16191;49.548;8.658;2023-04-25T09:29:05;99999.06;;;10.33;95.29
29121;BME280;16191;49.548;8.658;2023-04-25T09:31:35;100002.63;;;10.51;96.42
29121;BME280;16191;49.548;8.658;2023-04-25T09:34:03;99999.84;;;10.93;99.35
29121;BME280;16191;49.548;8.658;2023-04-25T09:36:40;100009.06;;;11.19;94.13
29121;BME280;16191;49.548;8.658;2023-04-25T09:39:44;100011.53;;;10.65;91.89
29121;BME280;16191;49.548;8.658;2023-04-25T09:42:14;100007.31;;;11.01;95.66
29121;BME280;16191;49.548;8.658;2023-04-25T09:44:46;100014.38;;;10.98;92.55
29121;BME280;16191;49.548;8.658;2023-04-25T09:47:15;100025.81;;;10.96;91.07
29121;BME280;16191;49.548;8.658;2023-04-25T09:49:44;100024.22;;;11.29;89.68
29121;BME280;16191;49.548;8.658;2023-04-25T09:52:17;100035.88;;;11.22;88.36
29121;BME280;16191;49.548;8.658;2023-04-25T09:54:53;100027.75;;;11.47;88.63
29121;BME280;16191;49.548;8.658;2023-04-25T09:57:28;100035.06;;;11.58;86.74
29121;BME280;16191;49.548;8.658;2023-04-25T09:59:56;100029.91;;;11.56;85.28
29121;BME280;16191;49.548;8.658;2023-04-25T10:02:26;100042.00;;;11.40;85.37
29121;BME280;16191;49.548;8.658;2023-04-25T10:04:59;100024.59;;;11.94;87.28
29121;BME280;16191;49.548;8.658;2023-04-25T10:07:36;100036.03;;;11.91;86.67
29121;BME280;16191;49.548;8.658;2023-04-25T10:10:07;100024.78;;;12.41;85.51
29121;BME280;16191;49.548;8.658;2023-04-25T10:12:35;100028.06;;;12.95;75.75
29121;BME280;16191;49.548;8.658;2023-04-25T10:15:03;100034.78;;;12.83;77.43
29121;BME280;16191;49.548;8.658;2023-04-25T10:17:32;100036.00;;;13.09;76.97
29121;BME280;16191;49.548;8.658;2023-04-25T10:20:01;100041.56;;;13.03;76.18
29121;BME280;16191;49.548;8.658;2023-04-25T10:22:32;100040.44;;;12.76;75.44
29121;BME280;16191;49.548;8.658;2023-04-25T10:25:01;100037.91;;;12.74;79.08
29121;BME280;16191;49.548;8.658;2023-04-25T10:27:30;100039.00;;;12.86;76.47
29121;BME280;16191;49.548;8.658;2023-04-25T10:30:23;100040.34;;;13.26;74.48
29121;BME280;16191;49.548;8.658;2023-04-25T10:32:50;100039.81;;;12.70;80.17
29121;BME280;16191;49.548;8.658;2023-04-25T10:35:19;100041.75;;;12.67;82.30
29121;BME280;16191;49.548;8.658;2023-04-25T10:38:08;100038.28;;;12.33;81.10
29121;BME280;16191;49.548;8.658;2023-04-25T10:40:36;100043.06;;;12.25;79.78
29121;BME280;16191;49.548;8.658;2023-04-25T10:45:59;100040.19;;;12.47;80.86
29121;BME280;16191;49.548;8.658;2023-04-25T10:48:28;100043.84;;;13.09;77.02
29121;BME280;16191;49.548;8.658;2023-04-25T10:51:09;100048.16;;;13.10;74.72
29121;BME280;16191;49.548;8.658;2023-04-25T10:53:36;100052.44;;;13.28;72.22
29121;BME280;16191;49.548;8.658;2023-04-25T10:56:19;100042.88;;;12.79;70.15
29121;BME280;16191;49.548;8.658;2023-04-25T10:58:48;100044.75;;;12.59;71.87
29121;BME280;16191;49.548;8.658;2023-04-25T11:01:24;100046.25;;;12.48;71.93
29121;BME280;16191;49.548;8.658;2023-04-25T11:03:57;100058.13;;;12.38;71.24
29121;BME280;16191;49.548;8.658;2023-04-25T11:06:37;100057.44;;;12.17;71.38
29121;BME280;16191;49.548;8.658;2023-04-25T11:09:12;100055.97;;;12.28;73.98
29121;BME280;16191;49.548;8.658;2023-04-25T11:11:42;100063.44;;;12.01;75.51
29121;BME280;16191;49.548;8.658;2023-04-25T11:14:11;100057.06;;;12.24;75.30
29121;BME280;16191;49.548;8.658;2023-04-25T11:16:40;100067.19;;;11.96;71.22
29121;BME280;16191;49.548;8.658;2023-04-25T11:19:08;100069.34;;;11.88;72.25
29121;BME280;16191;49.548;8.658;2023-04-25T11:21:36;100070.38;;;11.48;72.25
29121;BME280;16191;49.548;8.658;2023-04-25T11:24:03;100071.56;;;11.59;75.26
29121;BME280;16191;49.548;8.658;2023-04-25T11:26:30;100072.72;;;11.71;76.24
29121;BME280;16191;49.548;8.658;2023-04-25T11:28:58;100075.53;;;11.49;75.37
29121;BME280;16191;49.548;8.658;2023-04-25T11:31:26;100076.06;;;11.75;75.78
29121;BME280;16191;49.548;8.658;2023-04-25T11:34:00;100079.13;;;11.28;76.91
29121;BME280;16191;49.548;8.658;2023-04-25T11:36:26;100082.09;;;11.58;76.66
29121;BME280;16191;49.548;8.658;2023-04-25T11:38:53;100088.31;;;11.37;76.18
29121;BME280;16191;49.548;8.658;2023-04-25T11:41:20;100085.19;;;11.66;74.72
29121;BME280;16191;49.548;8.658;2023-04-25T11:43:48;100080.38;;;12.12;74.26
29121;BME280;16191;49.548;8.658;2023-04-25T11:46:16;100085.19;;;11.85;71.94
29121;BME280;16191;49.548;8.658;2023-04-25T11:48:43;100082.03;;;11.95;72.63
29121;BME280;16191;49.548;8.658;2023-04-25T11:51:09;100087.09;;;12.67;71.50
29121;BME280;16191;49.548;8.658;2023-04-25T11:53:40;100084.94;;;12.76;70.73
29121;BME280;16191;49.548;8.658;2023-04-25T11:56:11;100083.88;;;12.62;70.24
29121;BME280;16191;49.548;8.658;2023-04-25T11:58:54;100092.84;;;12.24;70.05
29121;BME280;16191;49.548;8.658;2023-04-25T12:01:26;100087.22;;;12.49;69.95
29121;BME280;16191;49.548;8.658;2023-04-25T12:04:13;100087.91;;;12.00;68.23
29121;BME280;16191;49.548;8.658;2023-04-25T12:06:41;100098.28;;;11.66;71.80
29121;BME280;16191;49.548;8.658;2023-04-25T12:09:10;100103.25;;;11.71;72.49
29121;BME280;16191;49.548;8.658;2023-04-25T12:11:53;100105.34;;;12.00;72.89
29121;BME280;16191;49.548;8.658;2023-04-25T12:14:33;100101.75;;;12.02;74.02
29121;BME280;16191;49.548;8.658;2023-04-25T12:17:02;100101.66;;;12.04;72.70
29121;BME280;16191;49.548;8.658;2023-04-25T12:19:37;100105.34;;;12.34;72.85
29121;BME280;16191;49.548;8.658;2023-04-25T12:22:33;100105.50;;;12.14;73.82
29121;BME280;16191;49.548;8.658;2023-04-25T12:25:00;100101.66;;;12.56;73.83
29121;BME280;16191;49.548;8.658;2023-04-25T12:27:26;100106.66;;;12.60;73.02
29121;BME280;16191;49.548;8.658;2023-04-25T12:29:55;100103.16;;;12.10;69.56
29121;BME280;16191;49.548;8.658;2023-04-25T12:32:22;100110.59;;;12.17;69.78
29121;BME280;16191;49.548;8.658;2023-04-25T12:34:49;100111.50;;;12.68;68.61
29121;BME280;16191;49.548;8.658;2023-04-25T12:37:16;100116.34;;;13.09;66.97
29121;BME280;16191;49.548;8.658;2023-04-25T12:39:42;100101.03;;;13.18;65.96
29121;BME280;16191;49.548;8.658;2023-04-25T12:42:09;100108.25;;;13.13;63.67
29121;BME280;16191;49.548;8.658;2023-04-25T12:44:39;100112.25;;;12.87;64.29
29121;BME280;16191;49.548;8.658;2023-04-25T12:47:05;100117.03;;;12.79;65.35
29121;BME280;16191;49.548;8.658;2023-04-25T12:49:32;100114.13;;;13.18;65.40
29121;BME280;16191;49.548;8.658;2023-04-25T12:51:59;100114.75;;;13.06;64.73
29121;BME280;16191;49.548;8.658;2023-04-25T12:54:25;100116.69;;;13.35;61.89
29121;BME280;16191;49.548;8.658;2023-04-25T12:56:52;100120.75;;;13.72;60.50
29121;BME280;16191;49.548;8.658;2023-04-25T12:59:19;100116.78;;;13.81;60.76
29121;BME280;16191;49.548;8.658;2023-04-25T13:01:47;100116.75;;;13.97;61.55
29121;BME280;16191;49.548;8.658;2023-04-25T13:04:13;100118.59;;;12.66;64.60
29121;BME280;16191;49.548;8.658;2023-04-25T13:06:40;100123.97;;;13.62;62.02
29121;BME280;16191;49.548;8.658;2023-04-25T13:09:07;100121.00;;;13.36;61.52
29121;BME280;16191;49.548;8.658;2023-04-25T13:11:33;100121.06;;;13.66;61.16
29121;BME280;16191;49.548;8.658;2023-04-25T13:14:00;100119.41;;;13.81;61.02
29121;BME280;16191;49.548;8.658;2023-04-25T13:16:27;100124.97;;;13.75;60.03
29121;BME280;16191;49.548;8.658;2023-04-25T13:18:54;100122.09;;;13.48;58.84
29121;BME280;16191;49.548;8.658;2023-04-25T13:21:22;100119.75;;;13.59;59.35
29121;BME280;16191;49.548;8.658;2023-04-25T13:23:48;100117.38;;;13.55;59.67
29121;BME280;16191;49.548;8.658;2023-04-25T13:26:16;100122.34;;;13.44;59.55